Latest Coastal Weather Observations for Ulladulla

IDN60701

Issued at 8:15 am EST Thursday 24 July 2014 (issued every 10 minutes, with the page automatically refreshed every 10 minutes)

About coastal observations | Map of coastal stations | Coastal observations for NSW | Marine services | Other Formats
Station Details ID: 069138 Name: ULLADULLA AWS Lat: -35.36 Lon: 150.48 Height: 35.7 m
Data from the previous 72 hours. | See also: Recent months at Ulladulla
Date/Time
EST
Temp

°C
Wind Pressure Rain
since 9am
mm
Weather Cloud Vis
km
Sea
Height
m
Swell
Dir
 
Speed
knots
Gust
knots
hPa Trend Height
m
Period
s
Dir
24/08:00am 10.7 N 3 6 1021.1 - 0.0 - - - - - - -
24/07:30am 10.3 NNE 2 3 1021.3 - 0.0 - - - - - - -
24/07:00am 9.6 N 2 2 1021.4 - 0.0 - - - - - - -
24/06:30am 9.3 CALM 0 0 1021.1 - 0.0 - - - - - - -
24/06:00am 9.0 CALM 0 2 1021.0 - 0.0 - - - - - - -
24/05:30am 9.2 NNW 1 3 1020.5 - 0.0 - - - - - - -
24/05:00am 9.3 NW 2 4 1020.4 - 0.0 - - - - - - -
24/04:30am 10.1 NNW 4 5 1020.3 - 0.0 - - - - - - -
24/04:00am 10.8 NNW 4 6 1020.2 - 0.0 - - - - - - -
24/03:30am 10.6 NNW 5 8 1020.3 - 0.0 - - - - - - -
24/03:00am 10.3 NNW 4 6 1020.2 - 0.0 - - - - - - -
24/02:30am 9.8 NNW 3 4 1020.4 - 0.0 - - - - - - -
24/02:00am 9.9 NNW 3 5 1020.6 - 0.0 - - - - - - -
24/01:30am 9.3 NNW 4 5 1020.8 - 0.0 - - - - - - -
24/01:00am 8.7 N 3 3 1021.2 - 0.0 - - - - - - -
24/12:30am 9.9 N 3 4 1021.5 - 0.0 - - - - - - -
24/12:00am 10.5 N 2 3 1022.1 - 0.0 - - - - - - -
 
Date/Time
EST
Temp

°C
Wind Pressure Rain
since 9am
mm
Weather Cloud Vis
km
Sea
Height
m
Swell
Dir
 
Speed
knots
Gust
knots
hPa Trend Height
m
Period
s
Dir
23/11:30pm 10.8 N 2 3 1022.2 - 0.0 - - - - - - -
23/11:00pm 11.3 N 2 3 1022.6 - 0.0 - - - - - - -
23/10:30pm 11.3 NNW 2 3 1022.6 - 0.0 - - - - - - -
23/10:00pm 11.6 NNW 3 5 1022.8 - 0.0 - - - - - - -
23/09:30pm 11.3 NNW 4 5 1022.7 - 0.0 - - - - - - -
23/09:00pm 11.2 NNW 3 5 1022.7 - 0.0 - - - - - - -
23/08:30pm 11.3 NNW 3 5 1022.7 - 0.0 - - - - - - -
23/08:00pm 11.5 NNW 3 5 1022.7 - 0.0 - - - - - - -
23/07:30pm 12.0 N 3 4 1022.5 - 0.0 - - - - - - -
23/07:00pm 13.0 N 2 4 1022.4 - 0.0 - - - - - - -
23/06:30pm 14.2 N 5 9 1022.2 - 0.0 - - - - - - -
23/06:00pm 14.4 NE 6 9 1022.2 - 0.0 - - - - - - -
23/05:30pm 14.3 NNE 5 9 1022.0 - 0.0 - - - - - - -
23/05:00pm 14.0 NE 3 6 1021.9 - 0.0 - - - - - - -
23/04:30pm 14.3 NE 3 6 1021.7 - 0.0 - - - - - - -
23/04:00pm 14.6 ENE 3 5 1021.6 - 0.0 - - - - - - -
23/03:30pm 15.4 ESE 3 5 1021.5 - 0.0 - - - - - - -
23/03:00pm 15.4 E 4 6 1021.7 - 0.0 - - - - - - -
23/02:30pm 15.6 ESE 4 6 1021.5 - 0.0 - - - - - - -
23/02:00pm 15.5 ESE 4 6 1021.8 - 0.0 - - - - - - -
23/01:30pm 15.7 E 4 6 1022.0 - 0.0 - - - - - - -
23/01:00pm 15.1 ENE 4 7 1022.4 - 0.0 - - - - - - -
23/12:30pm 15.4 ENE 5 7 1022.7 - 0.0 - - - - - - -
23/12:00pm 15.3 NNE 4 7 1023.6 - 0.0 - - - - - - -
23/11:30am 15.6 NNE 3 5 1024.1 - 0.0 - - - - - - -
23/11:00am 14.6 S 2 4 1024.8 - 0.0 - - - - - - -
23/10:30am 14.8 S 2 3 1025.0 - 0.0 - - - - - - -
23/10:00am 14.9 N 1 2 1025.4 - 0.0 - - - - - - -
23/09:30am 14.4 W 2 4 1025.2 - 0.0 - - - - - - -
23/09:00am 14.0 W 2 4 1025.2 - 0.0 - - - - - - -
23/08:30am 12.5 W 3 4 1024.9 - 0.0 - - - - - - -
23/08:00am 10.6 W 4 6 1024.8 - 0.0 - - - - - - -
23/07:30am 8.7 W 5 6 1024.7 - 0.0 - - - - - - -
23/07:00am 8.0 W 5 6 1024.5 - 0.0 - - - - - - -
23/06:30am 8.1 WSW 4 5 1024.0 - 0.0 - - - - - - -
23/06:00am 8.3 WSW 4 5 1024.1 - 0.0 - - - - - - -
23/05:30am 8.3 W 4 5 1023.7 - 0.0 - - - - - - -
23/05:00am 8.4 WSW 4 5 1023.4 - 0.0 - - - - - - -
23/04:30am 8.2 W 4 5 1023.1 - 0.0 - - - - - - -
23/04:00am 8.4 W 4 5 1023.2 - 0.0 - - - - - - -
23/03:30am 9.0 W 3 4 1023.1 - 0.0 - - - - - - -
23/03:00am 9.1 W 4 4 1023.4 - 0.0 - - - - - - -
23/02:30am 9.5 W 5 6 1023.6 - 0.0 - - - - - - -
23/02:00am 9.9 W 4 5 1023.8 - 0.0 - - - - - - -
23/01:30am 10.4 W 4 5 1023.9 - 0.0 - - - - - - -
23/01:00am 10.2 W 4 6 1024.2 - 0.0 - - - - - - -
23/12:30am 10.3 W 4 6 1024.1 - 0.0 - - - - - - -
23/12:00am 10.5 W 5 8 1024.5 - 0.0 - - - - - - -
 
Date/Time
EST
Temp

°C
Wind Pressure Rain
since 9am
mm
Weather Cloud Vis
km
Sea
Height
m
Swell
Dir
 
Speed
knots
Gust
knots
hPa Trend Height
m
Period
s
Dir
22/11:30pm 10.5 WSW 5 7 1024.4 - 0.0 - - - - - - -
22/11:00pm 10.7 WSW 5 6 1024.5 - 0.0 - - - - - - -
22/10:30pm 11.0 W 5 7 1024.6 - 0.0 - - - - - - -
22/10:00pm 11.2 W 5 6 1024.6 - 0.0 - - - - - - -
22/09:30pm 10.9 WSW 4 5 1024.4 - 0.0 - - - - - - -
22/09:00pm 11.1 WSW 4 5 1024.4 - 0.0 - - - - - - -
22/08:30pm 11.4 WSW 4 6 1024.3 - 0.0 - - - - - - -
22/08:00pm 11.9 SW 5 6 1024.5 - 0.0 - - - - - - -
22/07:30pm 11.7 SW 3 5 1024.4 - 0.0 - - - - - - -
22/07:00pm 12.2 WSW 4 5 1024.4 - 0.0 - - - - - - -
22/06:30pm 13.3 WSW 3 6 1024.2 - 0.0 - - - - - - -
22/06:00pm 14.2 S 6 8 1024.0 - 0.0 - - - - - - -
22/05:30pm 13.8 S 5 7 1023.6 - 0.0 - - - - - - -
22/05:00pm 13.8 S 5 7 1023.4 - 0.0 - - - - - - -
22/04:30pm 14.3 S 4 8 1023.2 - 0.0 - - - - - - -
22/04:00pm 14.4 S 6 8 1023.0 - 0.0 - - - - - - -
22/03:30pm 14.8 SSE 6 8 1022.7 - 0.0 - - - - - - -
22/03:00pm 14.8 S 6 9 1022.7 - 0.0 - - - - - - -
22/02:30pm 15.0 S 6 8 1022.7 - 0.0 - - - - - - -
22/02:00pm 15.1 S 6 9 1022.8 - 0.0 - - - - - - -
22/01:30pm 15.3 S 6 9 1022.9 - 0.0 - - - - - - -
22/01:00pm 15.1 S 5 8 1023.2 - 0.0 - - - - - - -
22/12:30pm 14.9 S 6 8 1023.3 - 0.0 - - - - - - -
22/12:00pm 14.9 S 5 8 1024.1 - 0.0 - - - - - - -
22/11:30am 14.7 S 4 6 1024.5 - 0.0 - - - - - - -
22/11:00am 14.8 S 4 5 1024.9 - 0.0 - - - - - - -
22/10:30am 14.6 SSW 4 6 1025.0 - 0.0 - - - - - - -
22/10:00am 14.7 WSW 1 3 1025.2 - 0.0 - - - - - - -
22/09:30am 13.9 W 2 5 1025.0 - 0.0 - - - - - - -
22/09:00am 12.4 WNW 2 3 1024.9 - 0.0 - - - - - - -
22/08:30am 9.9 SW 3 4 1024.8 - 0.0 - - - - - - -
22/08:00am 9.3 SSW 3 4 1024.7 - 0.0 - - - - - - -
22/07:30am 8.2 CALM 0 0 1024.2 - 0.0 - - - - - - -
22/07:00am 8.2 CALM 0 0 1024.1 - 0.0 - - - - - - -
22/06:30am 8.0 CALM 0 0 1023.7 - 0.0 - - - - - - -
22/06:00am 7.5 WSW 1 4 1023.7 - 0.0 - - - - - - -
22/05:30am 8.3 WSW 2 2 1023.4 - 0.0 - - - - - - -
22/05:00am 8.4 WSW 3 4 1023.3 - 0.0 - - - - - - -
22/04:30am 8.5 SW 2 3 1023.3 - 0.0 - - - - - - -
22/04:00am 8.8 SSW 3 4 1023.3 - 0.0 - - - - - - -
22/03:30am 9.1 SSW 2 3 1023.3 - 0.0 - - - - - - -
22/03:00am 9.7 SSW 3 4 1023.4 - 0.0 - - - - - - -
22/02:30am 9.8 S 3 4 1023.3 - 0.0 - - - - - - -
22/02:00am 10.4 S 3 4 1023.5 - 0.0 - - - - - - -
22/01:30am 10.6 S 4 5 1023.6 - 0.0 - - - - - - -
22/01:00am 10.7 WSW 2 3 1023.9 - 0.0 - - - - - - -
22/12:30am 11.3 W 3 4 1023.8 - 0.0 - - - - - - -
22/12:00am 11.0 W 4 5 1024.1 - 0.0 - - - - - - -
 
Date/Time
EST
Temp

°C
Wind Pressure Rain
since 9am
mm
Weather Cloud Vis
km
Sea
Height
m
Swell
Dir
 
Speed
knots
Gust
knots
hPa Trend Height
m
Period
s
Dir
21/11:30pm 11.2 W 4 5 1024.2 - 0.0 - - - - - - -
21/11:00pm 11.4 W 3 5 1024.4 - 0.0 - - - - - - -
21/10:30pm 11.3 W 3 4 1024.5 - 0.0 - - - - - - -
21/10:00pm 11.1 W 4 6 1024.6 - 0.0 - - - - - - -
21/09:30pm 11.3 W 4 5 1024.5 - 0.0 - - - - - - -
21/09:00pm 11.6 W 4 5 1024.7 - 0.0 - - - - - - -
21/08:30pm 11.9 WNW 4 5 1024.5 - 0.0 - - - - - - -
21/08:00pm 11.8 WNW 4 5 1024.6 - 0.0 - - - - - - -
21/07:30pm 11.6 NW 4 5 1024.4 - 0.0 - - - - - - -
21/07:00pm 11.2 WNW 3 4 1024.4 - 0.0 - - - - - - -
21/06:30pm 11.6 NNE 2 3 1024.1 - 0.0 - - - - - - -
21/06:00pm 12.4 NE 1 2 1024.1 - 0.0 - - - - - - -
21/05:30pm 13.1 NE 2 4 1023.7 - 0.0 - - - - - - -
21/05:00pm 13.3 ENE 2 4 1023.8 - 0.0 - - - - - - -
21/04:30pm 13.9 ENE 1 3 1023.6 - 0.0 - - - - - - -
21/04:00pm 14.4 E 3 5 1023.6 - 0.0 - - - - - - -
21/03:30pm 14.7 E 2 4 1023.6 - 0.0 - - - - - - -
21/03:00pm 14.9 S 3 4 1023.6 - 0.0 - - - - - - -
21/02:30pm 15.2 S 2 4 1023.6 - 0.0 - - - - - - -
21/02:00pm 14.9 S 2 3 1023.8 - 0.0 - - - - - - -
21/01:30pm 14.6 S 2 4 1023.9 - 0.0 - - - - - - -
21/01:00pm 14.6 S 3 5 1024.4 - 0.0 - - - - - - -
21/12:30pm 14.9 S 4 5 1024.6 - 0.0 - - - - - - -
21/12:00pm 14.9 S 3 5 1025.4 - 0.0 - - - - - - -
21/11:30am 14.7 SSW 3 4 1025.7 - 0.0 - - - - - - -
21/11:00am 14.0 SSW 3 5 1026.2 - 0.0 - - - - - - -
21/10:30am 13.8 SW 4 5 1026.4 - 0.0 - - - - - - -
21/10:00am 13.2 SW 3 5 1026.6 - 0.0 - - - - - - -
21/09:30am 12.6 SW 3 5 1026.7 - 0.0 - - - - - - -
21/09:00am 12.2 WSW 2 4 1026.7 - 0.0 - - - - - - -
21/08:30am 11.7 WSW 3 5 1026.6 - 0.0 - - - - - - -

Other Formats:

Comma delimited format used in spreadsheet applications
http://www.bom.gov.au/fwo/IDN60701/IDN60701.94938.axf

JavaScript Object Notation format (JSON) in row-major order
http://www.bom.gov.au/fwo/IDN60701/IDN60701.94938.json